CheckWX is a tool to help pilots better visualize weather data.  It is not intended as a substitute for an official pre-flight weather briefing.

16:23:04 UTC

PAED METAR
Elmendorf AFB Airport
Anchorage, Alaska, USA
Current

27 mins ago

PAED 171556Z 00000KT 10SM SCT070 BKN090 00/M01 A2905 RMK AO2A SLP835 T10011011 $
Observed
Oct-17 @ 15:56 UTC
Visibility
10 SM
Flight Rules
VFR
Cloud Levels
  • Scattered at 7,000' AGL
  • Broken at 9,000' AGL
Temperature
-0°C / 32°F
Dewpoint
-1°C / 30°F
Humidity
93%
Altimeter
29.05" Hg
Pressure
983.72 hPa
Previous

1 hour ago

PAED 171456Z 07003KT 10SM SCT070 00/M01 A2904 RMK AO2A DZE1356 SLP831 60001 T00021009 56002 $
Observed
Oct-17 @ 14:56 UTC
Wind
  • 070° at 3 KTS
Visibility
10 SM
Flight Rules
VFR
Cloud Levels
  • Scattered at 7,000' AGL
Temperature
C / 32°F
Dewpoint
-1°C / 30°F
Humidity
93%
Altimeter
29.04" Hg
Pressure
983.42 hPa
Previous

2 hours ago

PAED 171356Z 03003KT 10SM -DZ FEW060 01/M01 A2904 RMK SLP831 P0000 60001 T00101009 58001 $
Observed
Oct-17 @ 13:56 UTC
Wind
  • 030° at 3 KTS
Visibility
10 SM
Flight Rules
VFR
Conditions
Light Drizzle
Cloud Levels
  • Few at 6,000' AGL
Temperature
C / 34°F
Dewpoint
-1°C / 30°F
Humidity
87%
Altimeter
29.04" Hg
Pressure
983.42 hPa
Current Rain
0.01"